Time;durP1;ratioP1;P1;durP2;ratioP2;P2;SDS_P1;SDS_P2;PMS_P1;PMS_P2;Temp;Humidity;BMP_temperature;BMP_pressure;BME280_temperature;BME280_humidity;BME280_pressure;Samples;Min_cycle;Max_cycle;Signal;HPM_P1;HPM_P2
2022/03/26 00:00:00;;;;;;;72.93;32.97;;;5.40;76.70;;;;;;4024834;28;20149;-76
2022/03/26 00:02:01;;;;;;;69.53;33.63;;;5.40;76.70;;;;;;4037047;28;20046;-76
2022/03/26 00:04:02;;;;;;;73.57;33.30;;;5.40;76.70;;;;;;4023290;28;20092;-76
2022/03/26 00:06:04;;;;;;;63.97;32.45;;;5.40;76.70;;;;;;4040695;28;20597;-75
2022/03/26 00:08:05;;;;;;;74.28;33.47;;;5.40;76.70;;;;;;4048444;28;20087;-75
2022/03/26 00:10:06;;;;;;;76.05;32.85;;;5.40;76.80;;;;;;4042210;28;20053;-75
2022/03/26 00:12:08;;;;;;;83.90;35.67;;;5.40;76.80;;;;;;4020191;28;20060;-76
2022/03/26 00:14:11;;;;;;;70.80;32.25;;;5.40;76.80;;;;;;4046219;28;20528;-76
2022/03/26 00:16:11;;;;;;;75.28;32.30;;;5.40;76.90;;;;;;4013798;29;20370;-76
2022/03/26 00:18:12;;;;;;;73.57;33.15;;;5.30;76.90;;;;;;4024872;28;20084;-76
2022/03/26 00:20:12;;;;;;;81.10;34.03;;;5.30;77.70;;;;;;4039266;28;20479;-76
2022/03/26 00:22:14;;;;;;;87.15;33.13;;;5.30;76.80;;;;;;4043779;28;20036;-76
2022/03/26 00:24:14;;;;;;;80.70;33.78;;;5.30;76.80;;;;;;4051037;28;20055;-76
2022/03/26 00:26:15;;;;;;;83.43;33.58;;;5.30;76.70;;;;;;4040976;28;20064;-76
2022/03/26 00:28:16;;;;;;;72.35;33.22;;;5.30;76.80;;;;;;4037029;28;20075;-76
2022/03/26 00:30:17;;;;;;;72.20;32.22;;;5.30;76.80;;;;;;4052562;28;20040;-75
2022/03/26 00:32:17;;;;;;;76.15;33.72;;;5.30;76.80;;;;;;4032139;28;20036;-75
2022/03/26 00:34:18;;;;;;;72.78;33.20;;;5.20;76.80;;;;;;4036690;28;20384;-76
2022/03/26 00:36:19;;;;;;;71.13;33.08;;;5.20;76.80;;;;;;4037289;28;20033;-76
2022/03/26 00:38:19;;;;;;;70.53;31.52;;;5.20;76.70;;;;;;4056036;28;20572;-76
2022/03/26 00:40:20;;;;;;;74.97;33.03;;;5.20;76.60;;;;;;4037430;28;20087;-76
2022/03/26 00:42:21;;;;;;;81.65;34.85;;;5.20;76.50;;;;;;4047023;28;20381;-75
2022/03/26 00:44:21;;;;;;;72.10;33.65;;;5.20;76.60;;;;;;4025562;28;20115;-77
2022/03/26 00:46:22;;;;;;;70.20;31.75;;;5.20;76.70;;;;;;4038390;28;20516;-76
2022/03/26 00:48:23;;;;;;;79.07;34.67;;;5.20;76.70;;;;;;4041086;28;21436;-76
2022/03/26 00:50:24;;;;;;;73.60;32.63;;;5.10;76.70;;;;;;4038540;28;20107;-76
2022/03/26 00:52:24;;;;;;;74.82;33.30;;;5.10;76.60;;;;;;4036177;28;20035;-76
2022/03/26 00:54:25;;;;;;;79.25;34.33;;;5.10;76.70;;;;;;4017449;28;20064;-75
2022/03/26 00:56:25;;;;;;;77.13;34.90;;;5.10;76.70;;;;;;4038484;28;20099;-76
2022/03/26 00:58:26;;;;;;;80.35;33.90;;;5.10;76.70;;;;;;4036196;28;20111;-76
2022/03/26 01:00:27;;;;;;;76.78;34.85;;;5.20;76.90;;;;;;4037706;28;20060;-76
2022/03/26 01:02:27;;;;;;;80.55;35.33;;;5.10;76.90;;;;;;4035566;28;20457;-76
2022/03/26 01:04:28;;;;;;;76.40;33.92;;;5.10;76.90;;;;;;4040843;28;20303;-76
2022/03/26 01:06:29;;;;;;;77.72;34.47;;;5.10;77.00;;;;;;4041682;28;20120;-76
2022/03/26 01:08:31;;;;;;;72.75;33.13;;;5.10;77.00;;;;;;4029839;28;20033;-76
2022/03/26 01:10:31;;;;;;;74.72;33.13;;;5.00;77.00;;;;;;4048990;28;20129;-76
2022/03/26 01:12:32;;;;;;;75.53;33.50;;;5.00;76.90;;;;;;4037701;28;20581;-76
2022/03/26 01:14:33;;;;;;;73.28;33.75;;;5.10;77.00;;;;;;4044639;28;20127;-76
2022/03/26 01:16:33;;;;;;;73.55;32.20;;;5.00;77.00;;;;;;4042322;28;20020;-76
2022/03/26 01:18:34;;;;;;;75.18;32.90;;;5.00;76.90;;;;;;4040924;28;20060;-76
2022/03/26 01:20:35;;;;;;;75.03;32.42;;;5.10;76.70;;;;;;4038924;28;20182;-76
2022/03/26 01:22:36;;;;;;;73.75;34.20;;;5.10;76.70;;;;;;4036045;28;20526;-75
2022/03/26 01:24:36;;;;;;;77.00;33.03;;;5.00;76.50;;;;;;4035249;28;20525;-75
2022/03/26 01:26:37;;;;;;;81.78;33.38;;;5.00;76.50;;;;;;4039045;28;20190;-75
2022/03/26 01:28:37;;;;;;;84.00;33.75;;;5.00;76.40;;;;;;4042793;28;20045;-75
2022/03/26 01:30:38;;;;;;;75.90;31.23;;;5.00;76.30;;;;;;4049981;28;20048;-75
2022/03/26 01:32:39;;;;;;;75.03;32.22;;;5.00;76.30;;;;;;4037000;28;20442;-75
2022/03/26 01:34:39;;;;;;;73.72;31.45;;;5.00;76.30;;;;;;4052763;28;20119;-76
2022/03/26 01:36:40;;;;;;;78.70;32.60;;;5.00;76.10;;;;;;4038178;28;20402;-76
2022/03/26 01:38:41;;;;;;;75.78;32.63;;;5.00;76.20;;;;;;4043956;28;20032;-75
2022/03/26 01:40:41;;;;;;;74.82;30.88;;;5.00;76.10;;;;;;4037740;28;20067;-75
2022/03/26 01:42:42;;;;;;;74.57;31.13;;;5.00;76.20;;;;;;4024214;28;20044;-75
2022/03/26 01:44:43;;;;;;;75.53;31.73;;;5.00;77.10;;;;;;4034836;28;20131;-75
2022/03/26 01:46:51;;;;;;;74.35;30.42;;;5.00;76.50;;;;;;4037732;28;20086;-76
2022/03/26 01:48:52;;;;;;;70.60;29.52;;;5.00;76.50;;;;;;4042234;28;20043;-76
2022/03/26 01:50:53;;;;;;;75.95;29.15;;;5.00;76.40;;;;;;4036032;28;20072;-75
2022/03/26 01:52:53;;;;;;;71.28;29.35;;;5.00;76.30;;;;;;4020121;28;20044;-75
2022/03/26 01:54:54;;;;;;;67.47;28.58;;;5.10;76.40;;;;;;4037572;28;20048;-75
2022/03/26 01:56:55;;;;;;;73.07;29.80;;;5.00;76.30;;;;;;4020693;28;20029;-75
2022/03/26 01:58:55;;;;;;;65.80;28.23;;;5.00;76.30;;;;;;4039832;28;20036;-75
2022/03/26 02:00:56;;;;;;;69.30;28.77;;;5.10;76.30;;;;;;4056161;28;20086;-76
2022/03/26 02:02:56;;;;;;;77.45;31.33;;;5.10;76.30;;;;;;4041004;28;20140;-75
2022/03/26 02:04:57;;;;;;;72.68;31.00;;;5.10;76.80;;;;;;4036887;28;20406;-76
2022/03/26 02:06:58;;;;;;;66.78;30.00;;;5.10;77.10;;;;;;4036978;28;20033;-75
2022/03/26 02:09:06;;;;;;;67.93;29.80;;;5.10;77.40;;;;;;4039836;28;20033;-76
2022/03/26 02:11:06;;;;;;;69.28;28.77;;;5.10;77.90;;;;;;4053162;28;20208;-76
2022/03/26 02:13:07;;;;;;;59.28;27.58;;;5.10;78.20;;;;;;4030868;28;20021;-76
2022/03/26 02:15:08;;;;;;;67.30;28.63;;;5.10;78.20;;;;;;4042430;28;20032;-75
2022/03/26 02:17:09;;;;;;;71.78;28.30;;;5.10;78.00;;;;;;4035396;28;20594;-75
2022/03/26 02:19:10;;;;;;;66.05;28.58;;;5.10;78.00;;;;;;4036129;28;20040;-75
2022/03/26 02:21:11;;;;;;;60.33;25.92;;;5.20;78.30;;;;;;4035598;28;20115;-76
2022/03/26 02:23:11;;;;;;;66.88;27.88;;;5.20;78.30;;;;;;4037857;28;20470;-75
2022/03/26 02:25:12;;;;;;;65.47;27.33;;;5.20;78.30;;;;;;4043127;28;20061;-75
2022/03/26 02:27:13;;;;;;;62.10;27.08;;;5.20;78.40;;;;;;4037265;28;20060;-75
2022/03/26 02:29:13;;;;;;;66.00;27.42;;;5.20;78.70;;;;;;4038404;28;20056;-75
2022/03/26 02:31:14;;;;;;;71.65;28.75;;;5.20;78.90;;;;;;4039522;28;20035;-75
2022/03/26 02:33:14;;;;;;;62.28;26.20;;;5.30;79.30;;;;;;4029534;28;20795;-75
2022/03/26 02:35:15;;;;;;;61.08;26.80;;;5.30;79.40;;;;;;4019743;28;20153;-75
2022/03/26 02:37:16;;;;;;;75.30;27.80;;;5.30;79.60;;;;;;4037954;28;20481;-76
2022/03/26 02:39:16;;;;;;;75.75;29.98;;;5.30;79.90;;;;;;4022883;28;20029;-75
2022/03/26 02:41:17;;;;;;;67.65;27.85;;;5.30;80.40;;;;;;4038474;28;20037;-75
2022/03/26 02:43:18;;;;;;;60.85;27.50;;;5.30;80.70;;;;;;4056859;28;20028;-76
2022/03/26 02:45:18;;;;;;;67.60;28.20;;;5.40;80.90;;;;;;4038070;28;20576;-75
2022/03/26 02:47:19;;;;;;;64.53;26.42;;;5.40;81.00;;;;;;4034544;28;20033;-75
2022/03/26 02:49:19;;;;;;;64.95;26.55;;;5.40;81.10;;;;;;4042954;28;20145;-75
2022/03/26 02:51:20;;;;;;;60.78;24.77;;;5.40;81.10;;;;;;4051133;28;20153;-75
2022/03/26 02:53:20;;;;;;;60.47;26.15;;;5.40;81.30;;;;;;4045907;28;20111;-75
2022/03/26 02:55:21;;;;;;;61.25;24.27;;;5.50;81.30;;;;;;4045542;28;20041;-75
2022/03/26 02:57:22;;;;;;;63.92;27.35;;;5.50;81.20;;;;;;4039578;28;20037;-76
2022/03/26 02:59:23;;;;;;;58.70;24.23;;;5.50;81.40;;;;;;4037846;28;20508;-76
2022/03/26 03:01:24;;;;;;;59.35;24.17;;;5.50;81.20;;;;;;4036910;28;20052;-75
2022/03/26 03:03:24;;;;;;;52.50;23.20;;;5.60;81.10;;;;;;4039142;28;20094;-76
2022/03/26 03:05:25;;;;;;;58.03;22.60;;;5.50;81.20;;;;;;4040579;28;20033;-75
2022/03/26 03:07:25;;;;;;;64.25;23.77;;;5.60;82.00;;;;;;4041394;28;20048;-75
2022/03/26 03:09:26;;;;;;;53.55;22.73;;;5.60;81.10;;;;;;4032499;28;21112;-76
2022/03/26 03:11:27;;;;;;;57.08;21.42;;;5.60;81.40;;;;;;4039706;28;20029;-75
2022/03/26 03:13:27;;;;;;;49.63;20.30;;;5.60;81.80;;;;;;4035730;28;20348;-75
2022/03/26 03:15:28;;;;;;;44.83;18.65;;;5.70;82.20;;;;;;4119088;28;20030;-75
2022/03/26 03:17:29;;;;;;;44.00;19.15;;;5.70;82.50;;;;;;4039842;28;20025;-75
2022/03/26 03:19:29;;;;;;;44.13;18.60;;;5.70;82.80;;;;;;4037295;28;20040;-76
2022/03/26 03:21:30;;;;;;;51.45;20.25;;;5.70;83.00;;;;;;4026854;28;20029;-75
2022/03/26 03:23:30;;;;;;;48.15;19.13;;;5.70;83.00;;;;;;4038793;28;20107;-75
2022/03/26 03:25:31;;;;;;;47.50;18.08;;;5.80;83.10;;;;;;4041494;28;20166;-75
2022/03/26 03:27:32;;;;;;;34.20;15.88;;;5.80;83.20;;;;;;4041910;28;20498;-75
2022/03/26 03:29:33;;;;;;;38.47;16.00;;;5.80;83.30;;;;;;4026485;28;20330;-75
2022/03/26 03:31:33;;;;;;;38.55;15.15;;;5.90;83.60;;;;;;4021771;28;20733;-76
2022/03/26 03:33:34;;;;;;;51.22;17.33;;;5.90;83.80;;;;;;4039576;28;20422;-76
2022/03/26 03:35:35;;;;;;;41.40;16.55;;;6.00;84.10;;;;;;4041957;28;20368;-76
2022/03/26 03:37:37;;;;;;;40.83;17.73;;;6.00;84.10;;;;;;4055093;28;20152;-75
2022/03/26 03:39:38;;;;;;;50.20;19.65;;;6.00;83.90;;;;;;4040563;28;20033;-75
2022/03/26 03:41:38;;;;;;;47.20;19.02;;;6.10;83.70;;;;;;4040448;28;20075;-76
2022/03/26 03:43:39;;;;;;;50.63;20.98;;;6.10;83.20;;;;;;4041389;28;20031;-76
2022/03/26 03:45:40;;;;;;;52.80;20.00;;;6.10;82.60;;;;;;4055055;28;20079;-75
2022/03/26 03:47:40;;;;;;;46.85;19.30;;;6.10;82.20;;;;;;4018256;28;20040;-76
2022/03/26 03:49:41;;;;;;;50.72;20.48;;;6.20;81.80;;;;;;4040188;28;20132;-76
2022/03/26 03:51:42;;;;;;;50.15;21.63;;;6.10;81.50;;;;;;4034895;28;20033;-76
2022/03/26 03:53:42;;;;;;;41.10;18.55;;;6.10;81.40;;;;;;4040605;28;20072;-76
2022/03/26 03:55:43;;;;;;;40.33;16.70;;;6.10;81.30;;;;;;4040411;28;20039;-76
2022/03/26 03:57:44;;;;;;;46.63;19.05;;;6.10;81.60;;;;;;4069810;28;20392;-76
2022/03/26 03:59:44;;;;;;;45.55;19.40;;;6.10;82.00;;;;;;4027238;28;20159;-76
2022/03/26 04:01:45;;;;;;;38.20;18.30;;;6.10;82.30;;;;;;4023637;28;20136;-76
2022/03/26 04:03:46;;;;;;;48.72;19.65;;;6.10;82.60;;;;;;4055464;28;20115;-76
2022/03/26 04:05:46;;;;;;;55.33;20.13;;;6.10;82.80;;;;;;4035529;28;20745;-76
2022/03/26 04:07:47;;;;;;;43.30;18.73;;;6.10;83.20;;;;;;4038802;28;20513;-76
2022/03/26 04:09:47;;;;;;;49.50;19.90;;;6.10;83.40;;;;;;4050881;28;20581;-74
2022/03/26 04:11:48;;;;;;;45.95;19.13;;;6.20;83.80;;;;;;4040987;28;20083;-74
2022/03/26 04:13:52;;;;;;;50.63;19.05;;;6.10;83.90;;;;;;4040229;28;20188;-74
2022/03/26 04:15:53;;;;;;;50.63;20.25;;;6.10;84.10;;;;;;4040199;28;20111;-74
2022/03/26 04:17:55;;;;;;;49.58;19.90;;;6.20;84.40;;;;;;4023808;28;20032;-74
2022/03/26 04:19:56;;;;;;;50.10;20.65;;;6.20;84.60;;;;;;4037557;28;20036;-74
2022/03/26 04:21:56;;;;;;;50.47;20.90;;;6.20;84.60;;;;;;4062860;28;20078;-74
2022/03/26 04:23:57;;;;;;;46.17;20.50;;;6.20;84.90;;;;;;4041785;28;20036;-74
2022/03/26 04:25:58;;;;;;;48.45;20.50;;;6.30;85.00;;;;;;4043233;28;20060;-74
2022/03/26 04:27:58;;;;;;;57.10;21.58;;;6.30;85.10;;;;;;4040494;28;20055;-74
2022/03/26 04:29:59;;;;;;;47.03;19.25;;;6.40;85.40;;;;;;4043518;28;20524;-74
2022/03/26 04:31:59;;;;;;;43.15;17.73;;;6.40;85.50;;;;;;4034480;28;20368;-74
2022/03/26 04:34:01;;;;;;;50.05;19.65;;;6.40;85.40;;;;;;4038813;28;20041;-74
2022/03/26 04:36:03;;;;;;;51.88;21.15;;;6.50;85.60;;;;;;4028220;28;20047;-74
2022/03/26 04:38:04;;;;;;;55.08;19.23;;;6.50;85.80;;;;;;4039973;28;20102;-74
2022/03/26 04:40:05;;;;;;;48.05;19.52;;;6.60;85.80;;;;;;4044640;28;20253;-74
2022/03/26 04:42:06;;;;;;;54.72;21.55;;;6.60;85.80;;;;;;4044957;28;20028;-74
2022/03/26 04:44:07;;;;;;;50.53;18.88;;;6.60;86.20;;;;;;4047426;28;20039;-74
2022/03/26 04:46:08;;;;;;;48.50;19.27;;;6.60;86.30;;;;;;4046413;28;20049;-75
2022/03/26 04:48:08;;;;;;;54.42;20.05;;;6.70;86.30;;;;;;4047784;28;20036;-74
2022/03/26 04:50:10;;;;;;;50.40;20.23;;;6.70;86.20;;;;;;4043377;28;21461;-74
2022/03/26 04:52:10;;;;;;;47.72;20.13;;;6.70;86.20;;;;;;4104278;28;20039;-75
2022/03/26 04:54:11;;;;;;;43.00;18.35;;;6.80;86.40;;;;;;4040049;28;20527;-74
2022/03/26 04:56:11;;;;;;;56.03;22.15;;;6.80;86.60;;;;;;4039430;28;20490;-74
2022/03/26 04:58:12;;;;;;;53.33;19.02;;;6.80;86.60;;;;;;4062680;28;20036;-74
2022/03/26 05:00:13;;;;;;;47.25;19.30;;;6.80;86.70;;;;;;4040639;28;20807;-74
2022/03/26 05:02:14;;;;;;;56.97;19.23;;;6.80;86.80;;;;;;4039435;28;20650;-74
2022/03/26 05:04:15;;;;;;;44.38;17.75;;;6.90;86.90;;;;;;4041478;28;20044;-74
2022/03/26 05:06:15;;;;;;;46.42;19.42;;;6.90;86.60;;;;;;4043230;28;20063;-74
2022/03/26 05:08:16;;;;;;;43.45;17.77;;;6.90;86.60;;;;;;4048325;28;20028;-74
2022/03/26 05:10:24;;;;;;;43.08;18.45;;;6.90;86.70;;;;;;4037352;28;20044;-74
2022/03/26 05:12:24;;;;;;;41.45;19.48;;;7.00;86.70;;;;;;4011084;29;20030;-74
2022/03/26 05:14:25;;;;;;;53.15;19.23;;;7.00;86.70;;;;;;4047767;28;20040;-74
2022/03/26 05:16:25;;;;;;;49.97;18.38;;;7.00;86.80;;;;;;4039311;28;20031;-74
2022/03/26 05:18:26;;;;;;;46.80;19.20;;;7.00;86.90;;;;;;4053020;28;20026;-74
2022/03/26 05:20:27;;;;;;;47.00;18.75;;;7.00;86.90;;;;;;4043851;28;20032;-74
2022/03/26 05:22:28;;;;;;;40.05;17.30;;;7.00;87.00;;;;;;4054344;28;20064;-74
2022/03/26 05:24:29;;;;;;;45.33;18.80;;;7.00;87.00;;;;;;4038235;28;20037;-74
2022/03/26 05:26:29;;;;;;;42.53;17.52;;;7.00;87.00;;;;;;4054417;28;20033;-74
2022/03/26 05:28:30;;;;;;;41.47;17.23;;;7.10;87.20;;;;;;4057611;28;20028;-74
2022/03/26 05:30:30;;;;;;;42.63;18.10;;;7.10;87.20;;;;;;4044355;28;20052;-74
2022/03/26 05:32:32;;;;;;;43.05;17.38;;;7.10;87.40;;;;;;4038697;28;20614;-74
2022/03/26 05:34:33;;;;;;;43.17;18.17;;;7.20;87.40;;;;;;4045580;28;20043;-74
2022/03/26 05:36:33;;;;;;;38.13;16.95;;;7.10;87.20;;;;;;4039567;28;20052;-74
2022/03/26 05:38:34;;;;;;;41.38;17.52;;;7.10;87.20;;;;;;4046419;28;20033;-74
2022/03/26 05:40:35;;;;;;;43.53;16.23;;;7.20;87.40;;;;;;4042792;28;20120;-74
2022/03/26 05:42:36;;;;;;;38.08;16.42;;;7.20;87.50;;;;;;4027939;28;20506;-74
2022/03/26 05:44:36;;;;;;;32.10;14.20;;;7.20;87.50;;;;;;4041339;28;20426;-74
2022/03/26 05:46:37;;;;;;;31.80;15.63;;;7.20;87.70;;;;;;4052472;28;20469;-74
2022/03/26 05:48:38;;;;;;;34.50;14.85;;;7.20;87.90;;;;;;4042567;28;20036;-74
2022/03/26 05:50:38;;;;;;;28.15;13.63;;;7.20;87.80;;;;;;4035557;28;20232;-74
2022/03/26 05:52:39;;;;;;;34.13;14.88;;;7.30;87.80;;;;;;4056451;28;20025;-74
2022/03/26 05:54:40;;;;;;;30.58;12.82;;;7.30;87.60;;;;;;4035323;28;20417;-74
2022/03/26 05:56:40;;;;;;;27.98;11.48;;;7.30;87.80;;;;;;4042282;28;20098;-74
2022/03/26 05:58:41;;;;;;;27.52;10.95;;;7.40;87.90;;;;;;4057091;28;20044;-74
2022/03/26 06:00:42;;;;;;;24.63;11.43;;;7.40;87.80;;;;;;4041942;28;20044;-74
2022/03/26 06:02:42;;;;;;;26.92;10.60;;;7.40;87.80;;;;;;4041184;28;20024;-74
2022/03/26 06:04:43;;;;;;;22.55;11.27;;;7.40;87.70;;;;;;4040340;28;21414;-74
2022/03/26 06:06:44;;;;;;;24.30;10.45;;;7.40;87.90;;;;;;4046914;28;20025;-74
2022/03/26 06:08:45;;;;;;;24.52;10.35;;;7.50;88.80;;;;;;4042862;28;20521;-73
2022/03/26 06:10:45;;;;;;;20.80;9.90;;;7.50;88.10;;;;;;4042471;28;20174;-73
2022/03/26 06:12:46;;;;;;;24.60;9.98;;;7.50;88.20;;;;;;4041046;28;20123;-74
2022/03/26 06:14:48;;;;;;;23.17;9.50;;;7.50;88.40;;;;;;4065191;28;20032;-74
2022/03/26 06:16:48;;;;;;;21.42;9.10;;;7.50;88.20;;;;;;4039868;28;20316;-74
2022/03/26 06:18:49;;;;;;;21.63;8.35;;;7.50;88.10;;;;;;4057840;28;20134;-74
2022/03/26 06:20:50;;;;;;;19.75;9.25;;;7.50;88.10;;;;;;4043339;28;20403;-74
2022/03/26 06:22:50;;;;;;;17.67;8.88;;;7.50;88.20;;;;;;4042214;28;20039;-74
2022/03/26 06:24:51;;;;;;;20.25;9.00;;;7.60;88.30;;;;;;4041712;28;20498;-74
2022/03/26 06:26:52;;;;;;;17.20;8.77;;;7.50;88.70;;;;;;4038856;28;20062;-74
2022/03/26 06:28:53;;;;;;;17.23;7.97;;;7.60;88.20;;;;;;4038369;28;20108;-74
2022/03/26 06:30:53;;;;;;;24.73;9.00;;;7.60;88.10;;;;;;4044214;28;20458;-73
2022/03/26 06:32:54;;;;;;;17.08;8.07;;;7.60;88.00;;;;;;4052531;28;20383;-74
2022/03/26 06:34:54;;;;;;;17.65;7.35;;;7.60;87.80;;;;;;4042253;28;20119;-74
2022/03/26 06:36:55;;;;;;;16.13;7.93;;;7.70;87.60;;;;;;4044043;28;20129;-74
2022/03/26 06:38:56;;;;;;;14.00;6.80;;;7.70;87.50;;;;;;4052765;28;20037;-74
2022/03/26 06:40:56;;;;;;;18.08;7.65;;;7.70;87.50;;;;;;4043090;28;20032;-74
2022/03/26 06:42:57;;;;;;;15.30;7.35;;;7.70;87.40;;;;;;4031169;28;20036;-74
2022/03/26 06:45:01;;;;;;;13.23;6.50;;;7.70;87.50;;;;;;4037659;28;20583;-74
2022/03/26 06:47:01;;;;;;;18.45;6.22;;;7.70;87.30;;;;;;4037479;28;20033;-74
2022/03/26 06:49:02;;;;;;;12.10;6.25;;;7.70;87.30;;;;;;4045338;28;20399;-74
2022/03/26 06:51:03;;;;;;;13.70;6.40;;;7.80;87.30;;;;;;4025661;28;20045;-74
2022/03/26 06:53:04;;;;;;;14.85;6.57;;;7.80;87.10;;;;;;4043952;28;20056;-74
2022/03/26 06:55:06;;;;;;;13.13;5.43;;;7.80;86.80;;;;;;4044422;28;20044;-74
2022/03/26 06:57:07;;;;;;;12.90;4.68;;;7.80;86.50;;;;;;4047713;28;20317;-74
2022/03/26 06:59:08;;;;;;;12.10;4.97;;;7.80;86.10;;;;;;4057969;28;20133;-74
2022/03/26 07:01:08;;;;;;;9.48;4.45;;;7.80;85.80;;;;;;4041563;28;20168;-74
2022/03/26 07:03:09;;;;;;;8.30;4.50;;;7.80;85.70;;;;;;4040694;28;20489;-74
2022/03/26 07:05:13;;;;;;;10.88;5.22;;;7.80;85.50;;;;;;4042719;28;20048;-74
2022/03/26 07:07:14;;;;;;;11.82;4.85;;;7.80;85.50;;;;;;4044787;28;20438;-74
2022/03/26 07:09:14;;;;;;;13.40;5.20;;;7.70;86.10;;;;;;4047450;28;20398;-74
2022/03/26 07:11:16;;;;;;;12.82;5.30;;;7.70;85.20;;;;;;4047990;28;20111;-74
2022/03/26 07:13:16;;;;;;;12.60;5.47;;;7.70;85.20;;;;;;4040432;28;20032;-73
2022/03/26 07:15:17;;;;;;;14.82;5.68;;;7.70;85.30;;;;;;4055083;28;20401;-75
2022/03/26 07:17:17;;;;;;;14.15;5.53;;;7.70;85.40;;;;;;4043049;28;20483;-74
2022/03/26 07:19:18;;;;;;;11.40;4.72;;;7.70;85.50;;;;;;4044635;28;20037;-74
2022/03/26 07:21:19;;;;;;;10.20;5.07;;;7.70;85.40;;;;;;4042400;28;20033;-74
2022/03/26 07:23:19;;;;;;;13.25;4.85;;;7.70;85.30;;;;;;4042618;28;20032;-74
2022/03/26 07:25:20;;;;;;;12.80;4.85;;;7.70;85.40;;;;;;4058612;28;20044;-74
2022/03/26 07:27:20;;;;;;;12.93;4.68;;;7.70;85.30;;;;;;4044247;28;20029;-74
2022/03/26 07:29:21;;;;;;;13.90;4.38;;;7.60;85.30;;;;;;4042188;28;20394;-74
2022/03/26 07:31:22;;;;;;;17.35;4.68;;;7.70;85.50;;;;;;4044073;28;20167;-74
2022/03/26 07:33:23;;;;;;;12.10;4.78;;;7.70;85.20;;;;;;4046661;28;20516;-74
2022/03/26 07:35:24;;;;;;;9.63;4.32;;;7.60;85.20;;;;;;4048480;28;20065;-74
2022/03/26 07:37:24;;;;;;;12.85;4.85;;;7.70;85.20;;;;;;4071770;28;20517;-74
2022/03/26 07:39:25;;;;;;;10.25;4.07;;;7.70;85.30;;;;;;4044538;28;20047;-74
2022/03/26 07:41:26;;;;;;;11.38;4.32;;;7.70;85.30;;;;;;4035250;28;20064;-74
2022/03/26 07:43:26;;;;;;;12.20;4.70;;;7.70;85.10;;;;;;4055274;28;20114;-74
2022/03/26 07:45:27;;;;;;;15.30;4.28;;;7.70;85.10;;;;;;4047432;28;20107;-74
2022/03/26 07:47:27;;;;;;;14.40;4.88;;;7.70;85.20;;;;;;4065057;28;20049;-74
2022/03/26 07:49:28;;;;;;;11.15;4.18;;;7.70;85.20;;;;;;4051464;28;20048;-74
2022/03/26 07:51:29;;;;;;;8.70;3.75;;;7.70;85.20;;;;;;4044070;28;20041;-74
2022/03/26 07:53:29;;;;;;;13.88;3.67;;;7.70;85.00;;;;;;4041392;28;20591;-74
2022/03/26 07:55:30;;;;;;;12.82;4.07;;;7.70;85.00;;;;;;4068772;28;20028;-74
2022/03/26 07:57:30;;;;;;;12.10;4.20;;;7.70;84.80;;;;;;4050965;28;20021;-74
2022/03/26 07:59:31;;;;;;;11.63;4.00;;;7.80;84.90;;;;;;4047923;28;20406;-74
2022/03/26 08:01:32;;;;;;;16.13;3.70;;;7.80;84.80;;;;;;4063018;28;20126;-74
2022/03/26 08:03:33;;;;;;;8.43;3.15;;;7.80;84.60;;;;;;4035530;28;20033;-74
2022/03/26 08:05:34;;;;;;;6.95;2.88;;;7.80;85.20;;;;;;4044367;28;20692;-74
2022/03/26 08:07:34;;;;;;;8.48;2.35;;;7.80;84.30;;;;;;4032146;28;20029;-74
2022/03/26 08:09:35;;;;;;;6.95;2.65;;;7.80;84.20;;;;;;4075522;28;20099;-74
2022/03/26 08:11:35;;;;;;;5.22;2.47;;;7.80;84.20;;;;;;4045661;28;20080;-74
2022/03/26 08:13:36;;;;;;;11.57;3.30;;;7.80;84.30;;;;;;4032918;28;20025;-74
2022/03/26 08:15:37;;;;;;;4.78;2.47;;;7.80;84.30;;;;;;4047777;28;20025;-73
2022/03/26 08:17:37;;;;;;;8.50;2.30;;;7.90;84.50;;;;;;4048630;28;20060;-74
2022/03/26 08:19:38;;;;;;;11.43;2.90;;;7.90;84.40;;;;;;4044232;28;20029;-74
2022/03/26 08:21:39;;;;;;;7.57;2.30;;;7.90;84.20;;;;;;4042420;28;20033;-74
2022/03/26 08:23:40;;;;;;;7.03;2.42;;;7.90;83.70;;;;;;4050458;28;20032;-74
2022/03/26 08:28:08;;;;;;;6.55;2.08;;;7.90;83.30;;;;;;4039768;28;20028;-74
2022/03/26 08:30:09;;;;;;;7.28;1.88;;;7.90;83.00;;;;;;4027122;28;20049;-74
2022/03/26 08:32:10;;;;;;;5.78;1.90;;;8.00;83.20;;;;;;4038921;28;20146;-74
2022/03/26 08:34:11;;;;;;;7.00;2.17;;;8.00;83.10;;;;;;4042614;28;20525;-74
2022/03/26 08:36:12;;;;;;;4.03;1.60;;;8.00;82.80;;;;;;4042688;28;20153;-74
2022/03/26 08:38:13;;;;;;;5.13;1.75;;;8.00;82.50;;;;;;4033527;28;20666;-74
2022/03/26 08:40:13;;;;;;;4.07;1.60;;;8.00;82.40;;;;;;4038213;28;20033;-74
2022/03/26 08:42:14;;;;;;;5.32;1.75;;;8.00;82.50;;;;;;4064532;28;20059;-74
2022/03/26 08:44:14;;;;;;;5.20;1.63;;;8.00;82.60;;;;;;4044356;28;20036;-74
2022/03/26 08:46:15;;;;;;;6.22;1.80;;;8.10;82.50;;;;;;4042389;28;20561;-74
2022/03/26 08:48:16;;;;;;;7.68;1.75;;;8.00;82.10;;;;;;4043843;28;20044;-74
2022/03/26 08:50:17;;;;;;;7.65;2.25;;;8.10;82.20;;;;;;4009149;29;20034;-74
2022/03/26 08:52:17;;;;;;;7.43;2.00;;;8.10;82.20;;;;;;4035113;28;20047;-74
2022/03/26 08:54:18;;;;;;;5.18;1.60;;;8.10;81.90;;;;;;4039513;28;20394;-74
2022/03/26 08:56:19;;;;;;;5.35;1.50;;;8.20;81.90;;;;;;4039718;28;20072;-74
2022/03/26 08:58:20;;;;;;;5.22;1.73;;;8.20;81.80;;;;;;4041138;28;20030;-74
2022/03/26 09:00:21;;;;;;;5.35;1.50;;;8.20;81.60;;;;;;4041106;28;20033;-74
2022/03/26 09:02:22;;;;;;;3.22;1.40;;;8.20;81.30;;;;;;4046590;28;20076;-74
2022/03/26 09:04:23;;;;;;;3.13;1.30;;;8.30;81.40;;;;;;4036522;28;20115;-74
2022/03/26 09:06:23;;;;;;;4.68;1.92;;;8.40;80.90;;;;;;4046220;28;20069;-74
2022/03/26 09:08:24;;;;;;;4.47;1.35;;;8.40;80.50;;;;;;4042999;28;20022;-74
2022/03/26 09:10:24;;;;;;;5.00;1.42;;;8.50;80.30;;;;;;4035941;28;20434;-74
2022/03/26 09:12:25;;;;;;;3.50;1.30;;;8.50;80.10;;;;;;4033083;28;20218;-74
2022/03/26 09:14:26;;;;;;;3.28;1.45;;;8.50;80.30;;;;;;4039486;28;20514;-73
2022/03/26 09:16:26;;;;;;;3.88;1.40;;;8.60;79.90;;;;;;4036657;28;20021;-74
2022/03/26 09:18:27;;;;;;;5.78;1.48;;;8.60;79.80;;;;;;4045945;28;20040;-73
2022/03/26 09:20:27;;;;;;;3.33;1.20;;;8.60;79.20;;;;;;4041700;28;20123;-74
2022/03/26 09:22:28;;;;;;;3.28;1.52;;;8.70;79.30;;;;;;4046853;28;20034;-74
2022/03/26 09:24:29;;;;;;;3.53;1.00;;;8.80;79.30;;;;;;4038088;28;20141;-74
2022/03/26 09:26:29;;;;;;;5.93;1.70;;;8.90;79.50;;;;;;4040161;28;20032;-74
2022/03/26 09:28:30;;;;;;;3.15;1.17;;;9.00;79.30;;;;;;4041279;28;20046;-74
2022/03/26 09:30:31;;;;;;;1.88;0.98;;;9.00;78.40;;;;;;4046009;28;20048;-74
2022/03/26 09:32:32;;;;;;;3.10;1.30;;;9.10;78.20;;;;;;4049233;28;20246;-74
2022/03/26 09:34:33;;;;;;;2.08;1.25;;;9.10;78.00;;;;;;4040942;28;20137;-74
2022/03/26 09:36:33;;;;;;;2.15;1.20;;;9.20;78.00;;;;;;4039107;28;20041;-74
2022/03/26 09:38:34;;;;;;;2.25;1.10;;;9.40;77.20;;;;;;4038376;28;20111;-73
2022/03/26 09:40:35;;;;;;;2.40;1.25;;;9.30;75.80;;;;;;4043720;28;20038;-74
2022/03/26 09:42:36;;;;;;;3.95;1.10;;;9.40;75.00;;;;;;4049892;28;20043;-74
2022/03/26 09:44:37;;;;;;;3.53;1.60;;;9.40;75.20;;;;;;4050681;28;20028;-73
2022/03/26 09:46:37;;;;;;;3.30;1.27;;;9.50;74.80;;;;;;4014706;28;20080;-74
2022/03/26 09:48:38;;;;;;;2.75;1.00;;;9.50;74.90;;;;;;4048939;28;20149;-74
2022/03/26 09:50:41;;;;;;;1.98;1.17;;;9.60;74.30;;;;;;4041561;28;20417;-74
2022/03/26 09:52:42;;;;;;;2.08;1.25;;;9.50;74.00;;;;;;4049773;28;20613;-74
2022/03/26 09:54:42;;;;;;;2.50;1.23;;;9.60;74.30;;;;;;4041421;28;20292;-74
2022/03/26 09:56:43;;;;;;;3.25;1.25;;;9.60;74.00;;;;;;4035251;28;20600;-74
2022/03/26 09:58:44;;;;;;;3.38;1.83;;;9.60;73.20;;;;;;4046252;28;20044;-74
2022/03/26 10:00:44;;;;;;;4.88;2.00;;;9.70;73.60;;;;;;4030691;28;20060;-74
2022/03/26 10:02:45;;;;;;;4.47;1.70;;;9.70;72.90;;;;;;4021889;28;20041;-74
2022/03/26 10:04:46;;;;;;;3.72;1.55;;;9.70;72.70;;;;;;4041158;28;20063;-74
2022/03/26 10:06:51;;;;;;;2.78;1.70;;;9.70;73.60;;;;;;4040490;28;20407;-74
2022/03/26 10:08:52;;;;;;;3.03;1.38;;;9.60;73.40;;;;;;4038374;28;20028;-74
2022/03/26 10:10:53;;;;;;;1.63;1.05;;;9.80;73.20;;;;;;4036074;28;20435;-73
2022/03/26 10:12:53;;;;;;;3.65;1.70;;;9.70;73.50;;;;;;4044739;28;20095;-74
2022/03/26 10:15:04;;;;;;;4.53;1.40;;;9.80;74.10;;;;;;4041173;28;20040;-74
2022/03/26 10:17:09;;;;;;;3.28;1.20;;;9.90;72.30;;;;;;4041055;28;20083;-74
2022/03/26 10:19:09;;;;;;;2.78;1.30;;;9.90;72.10;;;;;;4040917;28;20128;-74
2022/03/26 10:21:13;;;;;;;4.75;1.80;;;9.90;71.80;;;;;;4038750;28;20071;-73
2022/03/26 10:23:28;;;;;;;1.77;1.17;;;9.90;71.30;;;;;;4061266;28;20028;-73
2022/03/26 10:25:31;;;;;;;3.15;1.38;;;9.90;71.80;;;;;;4051730;28;20050;-74
2022/03/26 10:27:39;;;;;;;4.72;1.45;;;10.00;72.00;;;;;;4038286;28;20115;-74